Bass River, Massachusetts
Current Conditions -  °F | °C
As of 2:56 AM on Monday 26 Jan 2015 (Local Time) from KHYA Reporting Station
Few Clouds Few Clouds  
Wind Chill: 14°   Ceiling: Unl
Heat Index: 25°   Visibility: 10mi
Dew Point: 14°   Wind: 12mph
Humidity: 63%   Direction: 360°N
Pressure: 30.03"   Gusts: 21mph
Location:  41.6739°N, 70.1961°W
Report Text: KHYA 260756Z AUTO 36010G18KT 10SM FEW024 M04/M10 A3003 RMK AO2 SLP171 T10391100
Loading
Personal Weather Stations






























Interactive Weather Map New forecast layout! Learn more

10-Day Weather Forecast

Advertisements
Track Severe Weather on mobile